Impacts METAR Board INFO
IDs:

KSTL - St Louis/Lambert Int, MO, US

Updated at: 1528 UTC 18 Jan 2018
Potential Impact None Slight Moderate High
Time18/03Z 18/04Z 18/05Z 18/06Z 18/07Z 18/08Z 18/09Z 18/10Z 18/11Z 18/12Z 18/13Z 18/14Z 18/15Z
VIS10 10 10 10 10 10 10 10 10 10 10 10 10
CIG-- -- -- -- -- -- -- -- -- -- -- -- --
CoverCLRCLRCLRCLRCLRCLRCLRCLRCLRCLRCLRCLRCLR
FltCatVFRVFRVFRVFRVFRVFRVFRVFRVFRVFRVFRVFRVFR
WX--------------------------
WDir240230240250250260260250230240230250240
WSpd6 6 6 6 12 10 7 8 11 11 10 8 11
WGst-- -- -- -- -- -- -- -- -- -- -- -- --
Raw hourly METARs
KSTL 180251Z 24006KT 10SM CLR M07/M12 A3052 RMK AO2 SLP355 T10671122 58014
KSTL 180351Z 23006KT 10SM CLR M07/M13 A3049 RMK AO2 SLP346 T10721128
KSTL 180451Z 24006KT 10SM CLR M07/M13 A3047 RMK AO2 SLP338 T10721128
KSTL 180551Z 25006KT 10SM CLR M07/M13 A3046 RMK AO2 SLP331 T10671128 11056 21078 410391161 56020
KSTL 180651Z 25012KT 10SM CLR M06/M13 A3042 RMK AO2 SLP317 T10611128
KSTL 180751Z 26010KT 10SM CLR M06/M13 A3041 RMK AO2 SLP315 T10611133
KSTL 180851Z 26007KT 10SM CLR M07/M13 A3042 RMK AO2 SLP317 T10721128 55012
KSTL 180951Z 25008KT 10SM CLR M07/M13 A3041 RMK AO2 SLP312 T10721128
KSTL 181051Z 23011KT 10SM CLR M07/M13 A3039 RMK AO2 SLP308 T10671128
KSTL 181151Z 24011KT 10SM CLR M07/M13 A3037 RMK AO2 SLP301 T10671128 11061 21072 58015
KSTL 181251Z 23010KT 10SM CLR M07/M13 A3036 RMK AO2 SLP299 T10671128
KSTL 181351Z 25008KT 10SM CLR M06/M13 A3036 RMK AO2 SLP298 T10561128
KSTL 181451Z 24011KT 10SM CLR M03/M12 A3037 RMK AO2 SLP301 T10331122 53000